sensor_id;sensor_type;location;lat;lon;timestamp;pressure;altitude;pressure_sealevel;temperature;humidity
39301;BME280;25019;42.626;23.380;2023-04-28T00:01:15;94592.69;;;5.50;56.38
39301;BME280;25019;42.626;23.380;2023-04-28T00:03:40;94571.91;;;5.35;56.42
39301;BME280;25019;42.626;23.380;2023-04-28T00:06:06;94622.66;;;5.62;57.12
39301;BME280;25019;42.626;23.380;2023-04-28T00:08:33;94625.31;;;5.55;57.32
39301;BME280;25019;42.626;23.380;2023-04-28T00:10:58;94630.97;;;5.59;57.23
39301;BME280;25019;42.626;23.380;2023-04-28T00:13:25;94631.97;;;5.58;57.69
39301;BME280;25019;42.626;23.380;2023-04-28T00:15:51;94567.56;;;5.15;57.28
39301;BME280;25019;42.626;23.380;2023-04-28T00:18:19;94630.41;;;5.50;58.07
39301;BME280;25019;42.626;23.380;2023-04-28T00:20:45;94580.50;;;5.23;57.10
39301;BME280;25019;42.626;23.380;2023-04-28T00:23:11;94515.69;;;4.77;56.90
39301;BME280;25019;42.626;23.380;2023-04-28T00:25:38;94583.75;;;5.19;57.49
39301;BME280;25019;42.626;23.380;2023-04-28T00:28:03;94631.84;;;5.46;57.80
39301;BME280;25019;42.626;23.380;2023-04-28T00:30:29;94589.88;;;5.13;57.87
39301;BME280;25019;42.626;23.380;2023-04-28T00:32:55;94640.19;;;5.36;57.62
39301;BME280;25019;42.626;23.380;2023-04-28T00:35:21;94634.56;;;5.26;58.63
39301;BME280;25019;42.626;23.380;2023-04-28T00:37:47;94641.66;;;5.25;58.13
39301;BME280;25019;42.626;23.380;2023-04-28T00:40:13;94639.25;;;5.17;58.66
39301;BME280;25019;42.626;23.380;2023-04-28T00:42:39;94637.84;;;5.08;58.93
39301;BME280;25019;42.626;23.380;2023-04-28T00:45:05;94641.31;;;5.08;58.77
39301;BME280;25019;42.626;23.380;2023-04-28T00:47:33;94638.88;;;5.07;59.67
39301;BME280;25019;42.626;23.380;2023-04-28T00:50:00;94598.50;;;4.74;59.28
39301;BME280;25019;42.626;23.380;2023-04-28T00:52:26;94649.25;;;5.02;59.06
39301;BME280;25019;42.626;23.380;2023-04-28T00:54:53;94632.06;;;4.86;59.06
39301;BME280;25019;42.626;23.380;2023-04-28T00:57:19;94648.03;;;4.91;59.28
39301;BME280;25019;42.626;23.380;2023-04-28T00:59:45;94575.31;;;4.38;59.64
39301;BME280;25019;42.626;23.380;2023-04-28T01:02:11;94642.78;;;4.84;60.08
39301;BME280;25019;42.626;23.380;2023-04-28T01:04:45;94631.13;;;4.60;60.51
39301;BME280;25019;42.626;23.380;2023-04-28T01:07:12;94596.53;;;4.36;60.68
39301;BME280;25019;42.626;23.380;2023-04-28T01:09:38;94598.38;;;4.29;60.67
39301;BME280;25019;42.626;23.380;2023-04-28T01:12:04;94592.94;;;4.17;60.60
39301;BME280;25019;42.626;23.380;2023-04-28T01:14:41;94653.16;;;4.52;60.96
39301;BME280;25019;42.626;23.380;2023-04-28T01:17:07;94655.59;;;4.60;60.27
39301;BME280;25019;42.626;23.380;2023-04-28T01:19:33;94597.19;;;4.18;60.38
39301;BME280;25019;42.626;23.380;2023-04-28T01:21:59;94591.50;;;4.08;60.31
39301;BME280;25019;42.626;23.380;2023-04-28T01:24:25;94648.13;;;4.44;60.78
39301;BME280;25019;42.626;23.380;2023-04-28T01:26:51;94657.81;;;4.50;60.70
39301;BME280;25019;42.626;23.380;2023-04-28T01:29:17;94658.44;;;4.45;60.66
39301;BME280;25019;42.626;23.380;2023-04-28T01:31:43;94643.25;;;4.27;60.62
39301;BME280;25019;42.626;23.380;2023-04-28T01:34:08;94645.88;;;4.27;60.78
39301;BME280;25019;42.626;23.380;2023-04-28T01:36:35;94650.56;;;4.32;61.07
39301;BME280;25019;42.626;23.380;2023-04-28T01:39:02;94602.81;;;3.95;60.73
39301;BME280;25019;42.626;23.380;2023-04-28T01:41:28;94613.75;;;3.92;60.66
39301;BME280;25019;42.626;23.380;2023-04-28T01:43:54;94605.47;;;3.88;60.30
39301;BME280;25019;42.626;23.380;2023-04-28T01:46:19;94605.03;;;3.84;60.06
39301;BME280;25019;42.626;23.380;2023-04-28T01:48:45;94610.28;;;3.91;60.67
39301;BME280;25019;42.626;23.380;2023-04-28T01:51:12;94653.97;;;4.19;60.76
39301;BME280;25019;42.626;23.380;2023-04-28T01:53:37;94662.91;;;4.25;60.45
39301;BME280;25019;42.626;23.380;2023-04-28T01:56:03;94666.13;;;4.27;60.47
39301;BME280;25019;42.626;23.380;2023-04-28T01:58:29;94601.59;;;3.90;61.03
39301;BME280;25019;42.626;23.380;2023-04-28T02:00:55;94652.16;;;4.19;60.45
39301;BME280;25019;42.626;23.380;2023-04-28T02:03:21;94606.66;;;3.85;60.77
39301;BME280;25019;42.626;23.380;2023-04-28T02:05:47;94664.31;;;4.20;60.92
39301;BME280;25019;42.626;23.380;2023-04-28T02:08:14;94613.34;;;3.88;60.60
39301;BME280;25019;42.626;23.380;2023-04-28T02:10:39;94610.50;;;3.83;60.60
39301;BME280;25019;42.626;23.380;2023-04-28T02:13:05;94621.63;;;3.85;60.66
39301;BME280;25019;42.626;23.380;2023-04-28T02:15:31;94673.00;;;4.14;60.78
39301;BME280;25019;42.626;23.380;2023-04-28T02:17:57;94644.47;;;3.98;60.84
39301;BME280;25019;42.626;23.380;2023-04-28T02:20:22;94622.81;;;3.75;61.15
39301;BME280;25019;42.626;23.380;2023-04-28T02:22:49;94626.06;;;3.78;61.95
39301;BME280;25019;42.626;23.380;2023-04-28T02:25:14;94668.94;;;4.05;61.26
39301;BME280;25019;42.626;23.380;2023-04-28T02:27:40;94680.25;;;4.12;61.53
39301;BME280;25019;42.626;23.380;2023-04-28T02:30:07;94657.22;;;4.01;61.79
39301;BME280;25019;42.626;23.380;2023-04-28T02:32:33;94668.75;;;4.07;62.59
39301;BME280;25019;42.626;23.380;2023-04-28T02:34:58;94626.22;;;3.69;62.00
39301;BME280;25019;42.626;23.380;2023-04-28T02:37:25;94647.28;;;3.89;62.12
39301;BME280;25019;42.626;23.380;2023-04-28T02:39:51;94645.66;;;3.82;62.61
39301;BME280;25019;42.626;23.380;2023-04-28T02:42:16;94684.28;;;4.01;62.55
39301;BME280;25019;42.626;23.380;2023-04-28T02:44:42;94681.66;;;4.01;63.07
39301;BME280;25019;42.626;23.380;2023-04-28T02:47:08;94598.28;;;3.41;62.81
39301;BME280;25019;42.626;23.380;2023-04-28T02:49:34;94630.06;;;3.67;62.77
39301;BME280;25019;42.626;23.380;2023-04-28T02:51:59;94666.50;;;3.90;62.52
39301;BME280;25019;42.626;23.380;2023-04-28T02:54:25;94672.78;;;3.89;62.47
39301;BME280;25019;42.626;23.380;2023-04-28T02:56:56;94638.34;;;3.70;63.10
39301;BME280;25019;42.626;23.380;2023-04-28T02:59:23;94691.78;;;4.04;62.96
39301;BME280;25019;42.626;23.380;2023-04-28T03:01:49;94695.03;;;4.00;63.38
39301;BME280;25019;42.626;23.380;2023-04-28T03:04:16;94704.13;;;4.04;62.88
39301;BME280;25019;42.626;23.380;2023-04-28T03:06:42;94634.09;;;3.56;63.18
39301;BME280;25019;42.626;23.380;2023-04-28T03:09:08;94708.16;;;4.00;63.41
39301;BME280;25019;42.626;23.380;2023-04-28T03:11:35;94614.44;;;3.38;62.45
39301;BME280;25019;42.626;23.380;2023-04-28T03:14:02;94635.28;;;3.53;62.88
39301;BME280;25019;42.626;23.380;2023-04-28T03:16:28;94689.94;;;3.92;62.79
39301;BME280;25019;42.626;23.380;2023-04-28T03:18:54;94637.13;;;3.53;62.77
39301;BME280;25019;42.626;23.380;2023-04-28T03:21:19;94606.56;;;3.32;62.31
39301;BME280;25019;42.626;23.380;2023-04-28T03:23:45;94711.56;;;3.94;62.60
39301;BME280;25019;42.626;23.380;2023-04-28T03:26:11;94711.19;;;3.97;62.27
39301;BME280;25019;42.626;23.380;2023-04-28T03:28:37;94655.91;;;3.56;62.36
39301;BME280;25019;42.626;23.380;2023-04-28T03:31:03;94719.25;;;3.88;62.19
39301;BME280;25019;42.626;23.380;2023-04-28T03:33:29;94592.94;;;3.08;61.96
39301;BME280;25019;42.626;23.380;2023-04-28T03:35:55;94718.84;;;3.92;61.88
39301;BME280;25019;42.626;23.380;2023-04-28T03:38:21;94726.75;;;4.05;61.07
39301;BME280;25019;42.626;23.380;2023-04-28T03:40:47;94678.59;;;3.84;61.03
39301;BME280;25019;42.626;23.380;2023-04-28T03:43:13;94667.91;;;3.93;60.52
39301;BME280;25019;42.626;23.380;2023-04-28T03:45:52;94669.97;;;4.04;59.57
39301;BME280;25019;42.626;23.380;2023-04-28T03:48:18;94743.59;;;4.51;59.35
39301;BME280;25019;42.626;23.380;2023-04-28T03:50:44;94667.13;;;4.12;58.97
39301;BME280;25019;42.626;23.380;2023-04-28T03:53:10;94737.34;;;4.65;58.63
39301;BME280;25019;42.626;23.380;2023-04-28T03:55:37;94629.72;;;4.10;58.21
39301;BME280;25019;42.626;23.380;2023-04-28T03:58:02;94712.25;;;4.76;58.23
39301;BME280;25019;42.626;23.380;2023-04-28T04:00:28;94715.63;;;5.10;56.67
39301;BME280;25019;42.626;23.380;2023-04-28T04:02:54;94701.03;;;5.21;55.41
39301;BME280;25019;42.626;23.380;2023-04-28T04:05:20;94747.44;;;5.81;54.97
39301;BME280;25019;42.626;23.380;2023-04-28T04:07:47;94776.56;;;6.39;53.45
39301;BME280;25019;42.626;23.380;2023-04-28T04:10:12;94749.16;;;6.72;51.72
39301;BME280;25019;42.626;23.380;2023-04-28T04:12:42;94757.31;;;7.14;50.89
39301;BME280;25019;42.626;23.380;2023-04-28T04:15:08;94780.19;;;7.64;49.68
39301;BME280;25019;42.626;23.380;2023-04-28T04:17:34;94719.72;;;7.68;48.94
39301;BME280;25019;42.626;23.380;2023-04-28T04:20:00;94776.50;;;8.33;47.96
39301;BME280;25019;42.626;23.380;2023-04-28T04:22:26;94710.28;;;8.52;47.64
39301;BME280;25019;42.626;23.380;2023-04-28T04:24:52;94773.13;;;9.35;45.11
39301;BME280;25019;42.626;23.380;2023-04-28T04:27:17;94769.09;;;9.56;44.48
39301;BME280;25019;42.626;23.380;2023-04-28T04:29:43;94715.72;;;9.52;44.54
39301;BME280;25019;42.626;23.380;2023-04-28T04:32:13;94732.00;;;9.85;43.00
39301;BME280;25019;42.626;23.380;2023-04-28T04:34:40;94738.13;;;10.26;42.76
39301;BME280;25019;42.626;23.380;2023-04-28T04:37:06;94724.66;;;10.45;42.21
39301;BME280;25019;42.626;23.380;2023-04-28T04:39:33;94725.88;;;10.88;40.88
39301;BME280;25019;42.626;23.380;2023-04-28T04:41:59;94710.13;;;10.82;40.88
39301;BME280;25019;42.626;23.380;2023-04-28T04:44:41;94734.13;;;11.04;40.12
39301;BME280;25019;42.626;23.380;2023-04-28T04:47:12;94752.91;;;11.36;40.33
39301;BME280;25019;42.626;23.380;2023-04-28T04:49:39;94778.38;;;11.15;39.88
39301;BME280;25019;42.626;23.380;2023-04-28T04:52:05;94781.38;;;11.02;40.50
39301;BME280;25019;42.626;23.380;2023-04-28T04:54:31;94791.13;;;11.30;40.30
39301;BME280;25019;42.626;23.380;2023-04-28T04:56:57;94789.56;;;11.51;39.37
39301;BME280;25019;42.626;23.380;2023-04-28T04:59:43;94789.09;;;11.03;39.76
39301;BME280;25019;42.626;23.380;2023-04-28T05:02:13;94802.25;;;11.27;39.79
39301;BME280;25019;42.626;23.380;2023-04-28T05:04:38;94750.06;;;11.21;39.65
39301;BME280;25019;42.626;23.380;2023-04-28T05:07:05;94806.34;;;11.91;38.82
39301;BME280;25019;42.626;23.380;2023-04-28T05:09:31;94813.81;;;12.34;38.23
39301;BME280;25019;42.626;23.380;2023-04-28T05:11:58;94802.13;;;12.62;37.96
39301;BME280;25019;42.626;23.380;2023-04-28T05:14:24;94802.59;;;12.32;38.83
39301;BME280;25019;42.626;23.380;2023-04-28T05:16:51;94803.25;;;12.44;37.92
39301;BME280;25019;42.626;23.380;2023-04-28T05:19:23;94762.22;;;12.40;37.64
39301;BME280;25019;42.626;23.380;2023-04-28T05:21:49;94798.75;;;12.00;38.36
39301;BME280;25019;42.626;23.380;2023-04-28T05:24:16;94774.31;;;11.86;38.56
39301;BME280;25019;42.626;23.380;2023-04-28T05:26:42;94802.81;;;11.86;39.19
39301;BME280;25019;42.626;23.380;2023-04-28T05:29:09;94791.03;;;11.81;38.85
39301;BME280;25019;42.626;23.380;2023-04-28T05:31:34;94798.03;;;11.88;39.52
39301;BME280;25019;42.626;23.380;2023-04-28T05:34:00;94757.97;;;11.55;39.83
39301;BME280;25019;42.626;23.380;2023-04-28T05:36:26;94797.47;;;12.25;39.18
39301;BME280;25019;42.626;23.380;2023-04-28T05:38:52;94801.00;;;11.91;39.52
39301;BME280;25019;42.626;23.380;2023-04-28T05:41:18;94806.69;;;11.78;39.69
39301;BME280;25019;42.626;23.380;2023-04-28T05:43:44;94783.81;;;11.77;40.29
39301;BME280;25019;42.626;23.380;2023-04-28T05:46:10;94745.31;;;11.84;39.70
39301;BME280;25019;42.626;23.380;2023-04-28T05:48:36;94808.66;;;12.27;39.22
39301;BME280;25019;42.626;23.380;2023-04-28T05:51:02;94804.28;;;11.76;39.53
39301;BME280;25019;42.626;23.380;2023-04-28T05:53:28;94797.25;;;11.48;39.54
39301;BME280;25019;42.626;23.380;2023-04-28T05:55:54;94802.31;;;11.15;40.03
39301;BME280;25019;42.626;23.380;2023-04-28T05:58:19;94786.78;;;10.90;40.86
39301;BME280;25019;42.626;23.380;2023-04-28T06:00:45;94761.88;;;10.62;41.50
39301;BME280;25019;42.626;23.380;2023-04-28T06:03:11;94744.63;;;10.35;41.92
39301;BME280;25019;42.626;23.380;2023-04-28T06:05:39;94813.28;;;11.19;41.16
39301;BME280;25019;42.626;23.380;2023-04-28T06:08:05;94808.72;;;11.14;41.01
39301;BME280;25019;42.626;23.380;2023-04-28T06:10:32;94791.44;;;10.83;41.25
39301;BME280;25019;42.626;23.380;2023-04-28T06:12:58;94782.66;;;10.65;41.53
39301;BME280;25019;42.626;23.380;2023-04-28T06:15:23;94785.88;;;9.97;42.44
39301;BME280;25019;42.626;23.380;2023-04-28T06:17:49;94756.75;;;8.78;44.40
39301;BME280;25019;42.626;23.380;2023-04-28T06:20:16;94809.56;;;8.43;45.72
39301;BME280;25019;42.626;23.380;2023-04-28T06:22:42;94798.31;;;7.98;46.55
39301;BME280;25019;42.626;23.380;2023-04-28T06:25:08;94818.44;;;7.62;48.02
39301;BME280;25019;42.626;23.380;2023-04-28T06:27:44;94814.75;;;7.44;48.32
39301;BME280;25019;42.626;23.380;2023-04-28T06:30:16;94818.13;;;7.52;48.49
39301;BME280;25019;42.626;23.380;2023-04-28T06:32:43;94813.91;;;7.25;49.09
39301;BME280;25019;42.626;23.380;2023-04-28T06:35:09;94762.88;;;6.81;49.13
39301;BME280;25019;42.626;23.380;2023-04-28T06:37:35;94767.84;;;6.96;49.30
39301;BME280;25019;42.626;23.380;2023-04-28T06:40:01;94821.13;;;7.37;49.23
39301;BME280;25019;42.626;23.380;2023-04-28T06:42:27;94809.09;;;7.15;49.66
39301;BME280;25019;42.626;23.380;2023-04-28T06:45:10;94816.59;;;7.18;49.95
39301;BME280;25019;42.626;23.380;2023-04-28T06:51:06;94737.44;;;6.86;49.86
39301;BME280;25019;42.626;23.380;2023-04-28T06:53:34;94694.06;;;6.75;49.34
39301;BME280;25019;42.626;23.380;2023-04-28T06:55:59;94806.47;;;7.59;48.39
39301;BME280;25019;42.626;23.380;2023-04-28T06:58:26;94803.09;;;7.52;48.20
39301;BME280;25019;42.626;23.380;2023-04-28T07:00:52;94814.47;;;7.53;49.35
39301;BME280;25019;42.626;23.380;2023-04-28T07:03:18;94749.69;;;7.06;48.13
39301;BME280;25019;42.626;23.380;2023-04-28T07:05:43;94751.22;;;7.14;49.30
39301;BME280;25019;42.626;23.380;2023-04-28T07:08:09;94816.69;;;7.56;49.55
39301;BME280;25019;42.626;23.380;2023-04-28T07:10:35;94800.94;;;7.42;48.53
39301;BME280;25019;42.626;23.380;2023-04-28T07:13:01;94760.13;;;6.94;49.02
39301;BME280;25019;42.626;23.380;2023-04-28T07:15:27;94811.91;;;7.20;49.36
39301;BME280;25019;42.626;23.380;2023-04-28T07:17:52;94773.88;;;7.03;49.05
39301;BME280;25019;42.626;23.380;2023-04-28T07:20:18;94810.97;;;7.33;49.26
39301;BME280;25019;42.626;23.380;2023-04-28T07:22:44;94814.97;;;7.43;49.04
39301;BME280;25019;42.626;23.380;2023-04-28T07:25:09;94819.69;;;7.59;49.01
39301;BME280;25019;42.626;23.380;2023-04-28T07:27:35;94748.50;;;7.20;49.45
39301;BME280;25019;42.626;23.380;2023-04-28T07:30:01;94803.09;;;7.71;49.16
39301;BME280;25019;42.626;23.380;2023-04-28T07:32:27;94789.22;;;7.75;49.08
39301;BME280;25019;42.626;23.380;2023-04-28T07:34:53;94813.59;;;7.96;48.72
39301;BME280;25019;42.626;23.380;2023-04-28T07:37:18;94809.06;;;7.85;48.63
39301;BME280;25019;42.626;23.380;2023-04-28T07:39:44;94806.75;;;7.88;48.67
39301;BME280;25019;42.626;23.380;2023-04-28T07:42:10;94806.53;;;8.08;49.20
39301;BME280;25019;42.626;23.380;2023-04-28T07:44:36;94687.59;;;7.53;48.33
39301;BME280;25019;42.626;23.380;2023-04-28T07:47:02;94815.31;;;8.39;47.70
39301;BME280;25019;42.626;23.380;2023-04-28T07:49:27;94759.72;;;8.09;46.96
39301;BME280;25019;42.626;23.380;2023-04-28T07:51:54;94766.31;;;8.18;47.79
39301;BME280;25019;42.626;23.380;2023-04-28T07:54:20;94756.72;;;8.05;46.09
39301;BME280;25019;42.626;23.380;2023-04-28T07:56:46;94789.38;;;8.30;46.93
39301;BME280;25019;42.626;23.380;2023-04-28T07:59:12;94799.94;;;8.48;46.92
39301;BME280;25019;42.626;23.380;2023-04-28T08:01:38;94698.72;;;7.92;47.65
39301;BME280;25019;42.626;23.380;2023-04-28T08:04:04;94786.84;;;8.53;46.69
39301;BME280;25019;42.626;23.380;2023-04-28T08:06:30;94809.56;;;8.73;46.13
39301;BME280;25019;42.626;23.380;2023-04-28T08:08:57;94750.00;;;8.52;46.68
39301;BME280;25019;42.626;23.380;2023-04-28T08:11:23;94737.47;;;8.59;46.69
39301;BME280;25019;42.626;23.380;2023-04-28T08:13:48;94749.13;;;8.70;45.43
39301;BME280;25019;42.626;23.380;2023-04-28T08:16:14;94740.72;;;8.73;45.43
39301;BME280;25019;42.626;23.380;2023-04-28T08:18:40;94789.38;;;9.03;44.99
39301;BME280;25019;42.626;23.380;2023-04-28T08:21:06;94782.56;;;8.95;44.44
39301;BME280;25019;42.626;23.380;2023-04-28T08:23:31;94798.97;;;9.16;44.00
39301;BME280;25019;42.626;23.380;2023-04-28T08:25:57;94802.19;;;9.29;44.37
39301;BME280;25019;42.626;23.380;2023-04-28T08:28:23;94798.25;;;9.44;45.22
39301;BME280;25019;42.626;23.380;2023-04-28T08:30:49;94699.31;;;8.91;43.98
39301;BME280;25019;42.626;23.380;2023-04-28T08:33:15;94722.00;;;8.98;43.51
39301;BME280;25019;42.626;23.380;2023-04-28T08:35:41;94787.44;;;9.46;43.25
39301;BME280;25019;42.626;23.380;2023-04-28T08:38:07;94766.69;;;9.42;43.08
39301;BME280;25019;42.626;23.380;2023-04-28T08:40:38;94738.34;;;9.31;42.94
39301;BME280;25019;42.626;23.380;2023-04-28T08:43:04;94793.63;;;9.75;42.82
39301;BME280;25019;42.626;23.380;2023-04-28T08:45:39;94791.19;;;9.85;42.46
39301;BME280;25019;42.626;23.380;2023-04-28T08:48:13;94790.25;;;9.92;42.69
39301;BME280;25019;42.626;23.380;2023-04-28T08:50:43;94787.72;;;9.85;42.26
39301;BME280;25019;42.626;23.380;2023-04-28T08:53:13;94727.72;;;9.43;42.45
39301;BME280;25019;42.626;23.380;2023-04-28T08:55:41;94726.34;;;9.52;42.77
39301;BME280;25019;42.626;23.380;2023-04-28T08:58:08;94779.94;;;10.07;42.52
39301;BME280;25019;42.626;23.380;2023-04-28T09:00:36;94720.25;;;9.81;42.21
39301;BME280;25019;42.626;23.380;2023-04-28T09:03:02;94772.47;;;10.04;41.79
39301;BME280;25019;42.626;23.380;2023-04-28T09:05:31;94692.69;;;9.41;41.48
39301;BME280;25019;42.626;23.380;2023-04-28T09:07:56;94783.44;;;9.96;41.70
39301;BME280;25019;42.626;23.380;2023-04-28T09:10:24;94723.63;;;9.76;41.71
39301;BME280;25019;42.626;23.380;2023-04-28T09:12:52;94767.78;;;10.23;41.49
39301;BME280;25019;42.626;23.380;2023-04-28T09:17:55;94759.59;;;10.54;41.29
39301;BME280;25019;42.626;23.380;2023-04-28T09:20:26;94762.66;;;10.62;40.76
39301;BME280;25019;42.626;23.380;2023-04-28T09:22:54;94745.13;;;10.44;41.63
39301;BME280;25019;42.626;23.380;2023-04-28T09:25:21;94740.53;;;10.57;41.34
39301;BME280;25019;42.626;23.380;2023-04-28T09:27:48;94745.59;;;10.75;40.45
39301;BME280;25019;42.626;23.380;2023-04-28T09:30:14;94754.97;;;10.78;40.78
39301;BME280;25019;42.626;23.380;2023-04-28T09:32:40;94746.81;;;10.85;41.12
39301;BME280;25019;42.626;23.380;2023-04-28T09:35:06;94749.00;;;10.88;40.41
39301;BME280;25019;42.626;23.380;2023-04-28T09:37:33;94743.22;;;10.91;40.18
39301;BME280;25019;42.626;23.380;2023-04-28T09:40:07;94685.31;;;10.59;40.53
39301;BME280;25019;42.626;23.380;2023-04-28T09:42:37;94738.28;;;11.00;41.32
39301;BME280;25019;42.626;23.380;2023-04-28T09:47:43;94624.38;;;10.18;40.86
39301;BME280;25019;42.626;23.380;2023-04-28T09:50:13;94487.38;;;9.32;40.35
39301;BME280;25019;42.626;23.380;2023-04-28T09:52:41;94701.97;;;10.88;39.93
39301;BME280;25019;42.626;23.380;2023-04-28T09:55:07;94557.44;;;9.99;39.59
39301;BME280;25019;42.626;23.380;2023-04-28T09:57:34;94723.22;;;11.22;39.87
39301;BME280;25019;42.626;23.380;2023-04-28T10:00:02;94656.16;;;10.98;39.27
39301;BME280;25019;42.626;23.380;2023-04-28T10:02:36;94717.94;;;11.45;39.15
39301;BME280;25019;42.626;23.380;2023-04-28T10:05:02;94650.78;;;11.15;39.13
39301;BME280;25019;42.626;23.380;2023-04-28T10:07:31;94634.44;;;11.23;38.90
39301;BME280;25019;42.626;23.380;2023-04-28T10:10:00;94697.91;;;11.81;38.90
39301;BME280;25019;42.626;23.380;2023-04-28T10:12:26;94700.69;;;11.69;38.11
39301;BME280;25019;42.626;23.380;2023-04-28T10:14:52;94710.66;;;11.79;38.59
39301;BME280;25019;42.626;23.380;2023-04-28T10:17:21;94695.44;;;11.75;38.27
39301;BME280;25019;42.626;23.380;2023-04-28T10:19:51;94693.09;;;12.01;38.29
39301;BME280;25019;42.626;23.380;2023-04-28T10:27:30;94633.31;;;11.64;36.39
39301;BME280;25019;42.626;23.380;2023-04-28T10:30:18;94684.28;;;12.00;36.34
39301;BME280;25019;42.626;23.380;2023-04-28T10:32:44;94688.81;;;11.99;36.53
39301;BME280;25019;42.626;23.380;2023-04-28T10:38:07;94685.16;;;12.06;36.63
39301;BME280;25019;42.626;23.380;2023-04-28T10:40:34;94686.28;;;12.10;36.56
39301;BME280;25019;42.626;23.380;2023-04-28T10:43:01;94669.06;;;12.18;36.21
39301;BME280;25019;42.626;23.380;2023-04-28T10:56:16;94665.03;;;12.80;37.10
39301;BME280;25019;42.626;23.380;2023-04-28T10:58:44;94645.84;;;12.78;36.18
39301;BME280;25019;42.626;23.380;2023-04-28T11:06:31;94592.69;;;12.23;35.71
39301;BME280;25019;42.626;23.380;2023-04-28T11:12:03;94647.03;;;12.60;35.29
39301;BME280;25019;42.626;23.380;2023-04-28T11:14:36;94582.66;;;12.36;36.67
39301;BME280;25019;42.626;23.380;2023-04-28T11:17:06;94596.69;;;12.58;35.61
39301;BME280;25019;42.626;23.380;2023-04-28T11:19:37;94628.34;;;12.93;34.82
39301;BME280;25019;42.626;23.380;2023-04-28T11:22:05;94642.28;;;13.05;35.25
39301;BME280;25019;42.626;23.380;2023-04-28T11:24:36;94631.56;;;13.00;34.36
39301;BME280;25019;42.626;23.380;2023-04-28T11:27:02;94616.31;;;12.90;34.78
39301;BME280;25019;42.626;23.380;2023-04-28T11:29:38;94636.59;;;12.91;34.28
39301;BME280;25019;42.626;23.380;2023-04-28T11:32:05;94626.91;;;12.74;35.51
39301;BME280;25019;42.626;23.380;2023-04-28T11:34:32;94590.06;;;12.66;35.04
39301;BME280;25019;42.626;23.380;2023-04-28T11:36:58;94625.47;;;12.99;34.94
39301;BME280;25019;42.626;23.380;2023-04-28T11:39:29;94616.13;;;13.02;34.72
39301;BME280;25019;42.626;23.380;2023-04-28T11:42:00;94605.97;;;12.94;34.63
39301;BME280;25019;42.626;23.380;2023-04-28T11:44:28;94609.03;;;12.75;34.86
39301;BME280;25019;42.626;23.380;2023-04-28T11:46:58;94578.00;;;12.53;34.18
39301;BME280;25019;42.626;23.380;2023-04-28T11:49:26;94604.00;;;12.79;33.70
39301;BME280;25019;42.626;23.380;2023-04-28T11:51:56;94610.00;;;13.01;33.67
39301;BME280;25019;42.626;23.380;2023-04-28T11:54:27;94602.84;;;13.07;33.56
39301;BME280;25019;42.626;23.380;2023-04-28T11:56:55;94572.09;;;12.94;33.03
39301;BME280;25019;42.626;23.380;2023-04-28T11:59:26;94601.59;;;13.25;33.13
39301;BME280;25019;42.626;23.380;2023-04-28T12:02:00;94612.31;;;13.36;32.26
39301;BME280;25019;42.626;23.380;2023-04-28T12:04:37;94596.84;;;13.38;32.15
39301;BME280;25019;42.626;23.380;2023-04-28T12:07:25;94544.50;;;13.21;32.18
39301;BME280;25019;42.626;23.380;2023-04-28T12:10:12;94600.69;;;13.57;31.17
39301;BME280;25019;42.626;23.380;2023-04-28T12:12:38;94582.25;;;13.45;30.11
39301;BME280;25019;42.626;23.380;2023-04-28T12:15:04;94589.72;;;13.54;29.89
39301;BME280;25019;42.626;23.380;2023-04-28T12:17:39;94563.31;;;13.57;30.13
39301;BME280;25019;42.626;23.380;2023-04-28T12:20:10;94577.22;;;13.70;30.44
39301;BME280;25019;42.626;23.380;2023-04-28T12:22:43;94574.84;;;13.73;30.82
39301;BME280;25019;42.626;23.380;2023-04-28T12:25:13;94578.59;;;13.83;31.05
39301;BME280;25019;42.626;23.380;2023-04-28T12:27:40;94579.41;;;13.88;31.46
39301;BME280;25019;42.626;23.380;2023-04-28T12:32:45;94574.31;;;13.82;31.46
39301;BME280;25019;42.626;23.380;2023-04-28T12:35:11;94509.13;;;13.41;31.30
39301;BME280;25019;42.626;23.380;2023-04-28T12:37:36;94566.03;;;13.78;31.36
39301;BME280;25019;42.626;23.380;2023-04-28T12:40:06;94552.97;;;13.76;31.38
39301;BME280;25019;42.626;23.380;2023-04-28T12:42:33;94561.50;;;13.78;31.34
39301;BME280;25019;42.626;23.380;2023-04-28T12:44:58;94557.00;;;13.89;31.28
39301;BME280;25019;42.626;23.380;2023-04-28T12:47:24;94538.31;;;13.89;31.16
39301;BME280;25019;42.626;23.380;2023-04-28T12:49:50;94539.91;;;14.01;31.56
39301;BME280;25019;42.626;23.380;2023-04-28T12:52:20;94537.25;;;14.16;31.97
39301;BME280;25019;42.626;23.380;2023-04-28T12:54:47;94501.44;;;13.97;31.94
39301;BME280;25019;42.626;23.380;2023-04-28T12:57:14;94541.78;;;14.26;32.70
39301;BME280;25019;42.626;23.380;2023-04-28T12:59:40;94547.38;;;14.35;32.51
39301;BME280;25019;42.626;23.380;2023-04-28T13:02:06;94544.97;;;14.54;33.04
39301;BME280;25019;42.626;23.380;2023-04-28T13:04:32;94535.06;;;14.54;33.32
39301;BME280;25019;42.626;23.380;2023-04-28T13:06:58;94482.47;;;14.34;32.25
39301;BME280;25019;42.626;23.380;2023-04-28T13:09:24;94430.16;;;13.97;32.14
39301;BME280;25019;42.626;23.380;2023-04-28T13:11:50;94502.78;;;14.35;31.76
39301;BME280;25019;42.626;23.380;2023-04-28T13:14:18;94539.09;;;14.47;31.70
39301;BME280;25019;42.626;23.380;2023-04-28T13:16:44;94501.44;;;14.28;31.73
39301;BME280;25019;42.626;23.380;2023-04-28T13:19:11;94443.25;;;13.88;31.89
39301;BME280;25019;42.626;23.380;2023-04-28T13:21:42;94523.31;;;14.50;32.13
39301;BME280;25019;42.626;23.380;2023-04-28T13:24:08;94524.66;;;14.53;32.36
39301;BME280;25019;42.626;23.380;2023-04-28T13:26:35;94525.72;;;14.62;32.20
39301;BME280;25019;42.626;23.380;2023-04-28T13:29:00;94521.97;;;14.68;32.03
39301;BME280;25019;42.626;23.380;2023-04-28T13:31:28;94532.41;;;14.70;31.34
39301;BME280;25019;42.626;23.380;2023-04-28T13:33:55;94528.38;;;14.73;31.87